Edmonton International Airport

CYEG · 艾伯塔, 加拿大

罗盘
风向 的 风向 230° Edmonton International Airport 2/20
风: 4 kt, 2 beaufort

4 kt

1 kt
改变
0 1.000 2.000 3.000 4.000 5.000
BKN 2.100 ft
SPECI CYEG 012329Z 23004KT 15SM IC BKN021 M26/M28 A2980 RMK SC7 SLP175

METAR Edmonton International Airport - CYEG/YEG

Edmonton International Airport是,加拿大中的大型机场。 该机场有2条跑道: 2/20 和 12/30. 该领域的国际民航组织标志是CYEG 它的国际航空运输协会代码是YEG.

这份报告是针对2022年12月1日 16:29, 当地时间在Edmonton International Airport进行的。

机场观察

风向为230°,速度为4 kt。

可见度为15 mi。

有碎云在2.100 ft的高度。 破损或更高的上限为2.100 ft。

当前天气为冰晶。 温度为-26 °C,阵风为-37 °C。 露点为-28 °C,相对湿度为83%。 海平面上的气压为29,80 inHg (QNH)。

白天

今天,太阳从08:26升起,在16:20降落。 这适用于Edmonton International Airport,世界夏令时可能有所不同。 当地时间与世界标准时间之间的时差为-7 小时。 当前,没有夏令时有效。

公司介绍

我们没有关于这个机场的公司信息。

体会

到Vliegles.nl去找飞行课程,跳伞和其他飞行体验。 浏览页面,了解Edmonton International Airport附近所有可用的活动。 你也可以使用搜索功能来寻找你所在地附近的特定飞行课程、跳伞或其他飞行体验。

跑道

Id 标题 侧风 逆风 侧风 %
2/20 034°-214° 1 kt 4 kt 28 %
12/30 135°-315° 4 kt 100 %

逆风成分最大的方向会被突出显示,并用于横风计算。 这并不一定意味着这个方向在使用。

乌云

2.100 ft BKN 碎云

温度 & 天气

天气 冰晶
温度 -26 °C
露点 -28 °C
相对湿度 83%
风寒 -37 °C
Kp-index 4 (0-9)

评论

SLP175海平面压力为30,05 inHg (30,05 inHg)
SC7

白天

日出
08:26 (15:31)
中午
12:23
日落
16:20

小工具

你想在你的网站上有一个关于Edmonton International Airport的当前航空天气(METAR)的小部件吗?

显示HTML代码

我们和第三方通过cookies跟踪您在我们网站上的互联网行为。如果你继续,我们认为你同意我们的饼干政策